Time;durP1;ratioP1;P1;durP2;ratioP2;P2;SDS_P1;SDS_P2;PMS_P1;PMS_P2;Temp;Humidity;BMP_temperature;BMP_pressure;BME280_temperature;BME280_humidity;BME280_pressure;Samples;Min_cycle;Max_cycle;Signal;HPM_P1;HPM_P2
2021/12/07 00:01:57;;;;;;;0.40;0.40;;;1.30;99.90;;;;;;5113889;28;20815;-80
2021/12/07 00:04:24;;;;;;;0.60;0.60;;;1.40;99.90;;;;;;5113490;28;20450;-80
2021/12/07 00:06:51;;;;;;;0.30;0.30;;;1.40;99.90;;;;;;5113922;28;20451;-80
2021/12/07 00:09:20;;;;;;;0.30;0.30;;;1.40;99.90;;;;;;5113496;28;20487;-80
2021/12/07 00:11:49;;;;;;;0.30;0.30;;;1.40;99.90;;;;;;5113804;28;20442;-81
2021/12/07 00:14:23;;;;;;;0.97;0.50;;;1.40;99.90;;;;;;5113573;28;20487;-86
2021/12/07 00:16:50;;;;;;;0.30;0.20;;;1.50;99.90;;;;;;5114093;28;20805;-86
2021/12/07 00:19:17;;;;;;;0.47;0.47;;;1.50;99.90;;;;;;5113646;28;20993;-86
2021/12/07 00:21:45;;;;;;;0.30;0.30;;;1.60;99.90;;;;;;5113896;28;20467;-80
2021/12/07 00:24:13;;;;;;;0.30;0.30;;;1.50;99.90;;;;;;5113700;28;20480;-80
2021/12/07 00:26:42;;;;;;;0.30;0.30;;;1.50;99.90;;;;;;5113750;28;20446;-84
2021/12/07 00:29:10;;;;;;;1.57;1.57;;;1.50;99.90;;;;;;5113694;28;20443;-84
2021/12/07 00:31:45;;;;;;;0.30;0.30;;;1.50;99.90;;;;;;5113651;28;20817;-84
2021/12/07 00:34:23;;;;;;;0.30;0.30;;;1.50;99.90;;;;;;5113959;28;20454;-84
2021/12/07 00:36:51;;;;;;;0.30;0.30;;;1.50;99.90;;;;;;5113932;28;20434;-84
2021/12/07 00:39:21;;;;;;;0.50;0.50;;;1.50;99.90;;;;;;5113844;28;20461;-80
2021/12/07 00:41:49;;;;;;;0.30;0.30;;;1.50;99.90;;;;;;5113972;28;20471;-86
2021/12/07 00:44:16;;;;;;;0.40;0.40;;;1.50;99.90;;;;;;5113733;28;20487;-87
2021/12/07 00:46:44;;;;;;;0.30;0.30;;;1.50;99.90;;;;;;5113847;28;20809;-87
2021/12/07 00:49:12;;;;;;;0.40;0.40;;;1.50;99.90;;;;;;5114662;28;20447;-86
2021/12/07 00:51:38;;;;;;;0.30;0.30;;;1.40;99.90;;;;;;5113525;28;20451;-86
2021/12/07 00:54:06;;;;;;;0.30;0.30;;;1.40;99.90;;;;;;5113512;28;20413;-87
2021/12/07 00:56:33;;;;;;;0.30;0.30;;;1.40;99.90;;;;;;5113769;28;20443;-87
2021/12/07 00:58:59;;;;;;;0.30;0.30;;;1.30;99.90;;;;;;5113858;28;20450;-86
2021/12/07 01:01:26;;;;;;;0.30;0.30;;;1.30;99.90;;;;;;5113791;28;20458;-87
2021/12/07 01:03:54;;;;;;;1.47;0.50;;;1.20;99.90;;;;;;5113436;28;20475;-84
2021/12/07 01:06:26;;;;;;;0.40;0.40;;;1.20;99.90;;;;;;5113669;28;20439;-84
2021/12/07 01:09:15;;;;;;;0.30;0.30;;;1.20;99.90;;;;;;5113027;28;20972;-81
2021/12/07 01:25:47;;;;;;;0.30;0.30;;;1.20;99.90;;;;;;5117247;28;20517;-81
2021/12/07 01:28:22;;;;;;;0.30;0.30;;;1.10;99.90;;;;;;5116570;28;20542;-81
2021/12/07 01:30:54;;;;;;;0.30;0.30;;;1.10;99.90;;;;;;5116762;28;20478;-81
2021/12/07 01:36:34;;;;;;;0.97;0.97;;;1.20;99.90;;;;;;5116755;28;20394;-81
2021/12/07 01:45:00;;;;;;;0.30;0.30;;;1.10;99.90;;;;;;5116588;28;20448;-81
2021/12/07 01:47:42;;;;;;;0.30;0.20;;;1.10;99.90;;;;;;5116188;28;20877;-81
2021/12/07 01:53:11;;;;;;;0.30;0.30;;;1.10;99.90;;;;;;5116692;28;20394;-80
2021/12/07 02:01:11;;;;;;;0.30;0.30;;;1.20;99.90;;;;;;5116193;28;20458;-80
2021/12/07 02:03:39;;;;;;;0.67;0.40;;;1.20;99.90;;;;;;5116772;28;20556;-80
2021/12/07 02:06:06;;;;;;;0.40;0.40;;;1.30;99.90;;;;;;5116101;28;20455;-80
2021/12/07 02:08:34;;;;;;;0.30;0.30;;;1.30;99.90;;;;;;5116036;28;20478;-80
2021/12/07 02:11:03;;;;;;;0.93;0.60;;;1.30;99.90;;;;;;5115896;28;20467;-80
2021/12/07 02:16:16;;;;;;;0.30;0.30;;;1.30;99.90;;;;;;5116036;28;20510;-80
2021/12/07 02:18:43;;;;;;;0.30;0.30;;;1.40;99.90;;;;;;5115855;28;20825;-80
2021/12/07 02:21:19;;;;;;;0.30;0.30;;;1.40;99.90;;;;;;5115745;28;20474;-80
2021/12/07 02:23:46;;;;;;;0.30;0.30;;;1.40;99.90;;;;;;5115450;28;20462;-80
2021/12/07 02:26:13;;;;;;;0.70;0.60;;;1.40;99.90;;;;;;5115686;28;20451;-80
2021/12/07 02:28:40;;;;;;;0.30;0.30;;;1.50;99.90;;;;;;5115711;28;20454;-86
2021/12/07 02:31:08;;;;;;;0.30;0.30;;;1.50;99.90;;;;;;5115493;28;21012;-87
2021/12/07 02:33:35;;;;;;;0.40;0.40;;;1.50;99.90;;;;;;5115809;28;20414;-86
2021/12/07 02:36:03;;;;;;;0.30;0.30;;;1.50;99.90;;;;;;5115679;28;20426;-87
2021/12/07 02:38:32;;;;;;;0.30;0.30;;;1.40;99.90;;;;;;5115866;28;20418;-87
2021/12/07 02:40:59;;;;;;;0.30;0.30;;;1.50;99.90;;;;;;5116095;27;20470;-87
2021/12/07 02:43:26;;;;;;;0.30;0.30;;;1.50;99.90;;;;;;5116491;28;20456;-81
2021/12/07 02:45:53;;;;;;;0.30;0.30;;;1.50;99.90;;;;;;5118023;28;20458;-81
2021/12/07 02:48:20;;;;;;;0.30;0.30;;;1.60;99.90;;;;;;5115373;28;20421;-81
2021/12/07 02:50:47;;;;;;;0.30;0.30;;;1.60;99.90;;;;;;5115210;28;20467;-81
2021/12/07 02:53:14;;;;;;;0.30;0.30;;;1.60;99.90;;;;;;5115201;27;20454;-80
2021/12/07 02:55:43;;;;;;;0.30;0.30;;;1.60;99.90;;;;;;5114789;28;20450;-80
2021/12/07 02:58:10;;;;;;;0.30;0.30;;;1.60;99.90;;;;;;5114796;28;20454;-80
2021/12/07 03:00:44;;;;;;;0.30;0.30;;;1.70;99.90;;;;;;5114983;28;20453;-80
2021/12/07 03:03:13;;;;;;;0.30;0.30;;;1.70;99.90;;;;;;5114961;28;20444;-80
2021/12/07 03:05:46;;;;;;;0.30;0.30;;;1.60;99.90;;;;;;5115100;28;20449;-87
2021/12/07 03:09:05;;;;;;;0.30;0.30;;;1.60;99.90;;;;;;5115030;28;20823;-86
2021/12/07 03:28:00;;;;;;;0.30;0.30;;;1.50;99.90;;;;;;5114592;28;20439;-80
2021/12/07 03:30:27;;;;;;;0.33;0.33;;;1.60;99.90;;;;;;5114110;28;20466;-80
2021/12/07 03:32:54;;;;;;;0.30;0.30;;;1.60;99.90;;;;;;5114431;28;20418;-84
2021/12/07 03:35:21;;;;;;;0.30;0.30;;;1.60;99.90;;;;;;5114379;28;20445;-84
2021/12/07 03:37:48;;;;;;;0.30;0.30;;;1.70;99.90;;;;;;5114405;28;20447;-84
2021/12/07 03:40:15;;;;;;;0.40;0.30;;;1.70;99.90;;;;;;5113868;28;20466;-84
2021/12/07 03:42:42;;;;;;;0.30;0.30;;;1.70;99.90;;;;;;5114301;28;20446;-83
2021/12/07 03:45:12;;;;;;;0.30;0.30;;;1.70;99.90;;;;;;5114234;28;20442;-83
2021/12/07 03:47:38;;;;;;;0.30;0.30;;;1.70;99.90;;;;;;5114190;28;20439;-83
2021/12/07 03:50:07;;;;;;;0.30;0.30;;;1.70;99.90;;;;;;5114091;28;20459;-83
2021/12/07 03:52:34;;;;;;;0.30;0.20;;;1.70;99.90;;;;;;5114113;28;20446;-84
2021/12/07 03:55:01;;;;;;;0.30;0.30;;;1.70;99.90;;;;;;5114069;28;20447;-83
2021/12/07 03:57:28;;;;;;;0.30;0.30;;;1.80;99.90;;;;;;5114098;28;20439;-82
2021/12/07 03:59:55;;;;;;;0.30;0.30;;;1.80;99.90;;;;;;5113992;28;20467;-81
2021/12/07 04:02:23;;;;;;;0.30;0.30;;;1.80;99.90;;;;;;5114239;28;20450;-81
2021/12/07 04:04:58;;;;;;;0.33;0.33;;;1.80;99.90;;;;;;5113591;28;20985;-81
2021/12/07 04:07:25;;;;;;;0.30;0.30;;;1.80;99.90;;;;;;5113950;28;20487;-81
2021/12/07 04:09:52;;;;;;;0.30;0.30;;;1.80;99.90;;;;;;5113656;28;22206;-81
2021/12/07 04:12:19;;;;;;;0.30;0.30;;;1.80;99.90;;;;;;5113563;28;20530;-81
2021/12/07 04:14:45;;;;;;;0.30;0.30;;;1.80;99.90;;;;;;5113928;28;20462;-82
2021/12/07 04:17:12;;;;;;;0.30;0.30;;;1.80;99.90;;;;;;5113844;28;20440;-81
2021/12/07 04:19:40;;;;;;;0.30;0.20;;;1.80;99.90;;;;;;5113454;28;20942;-81
2021/12/07 04:22:07;;;;;;;0.37;0.30;;;1.90;99.90;;;;;;5113816;28;20443;-82
2021/12/07 04:24:34;;;;;;;0.30;0.30;;;1.80;99.90;;;;;;5113433;28;21000;-85
2021/12/07 04:27:00;;;;;;;0.30;0.30;;;1.80;99.90;;;;;;5113478;28;20435;-85
2021/12/07 04:29:27;;;;;;;0.40;0.40;;;1.80;99.90;;;;;;5113772;28;20447;-85
2021/12/07 04:31:54;;;;;;;0.30;0.30;;;1.80;99.90;;;;;;5113337;28;20440;-85
2021/12/07 04:34:21;;;;;;;0.30;0.30;;;1.80;99.90;;;;;;5113471;28;20922;-85
2021/12/07 04:36:49;;;;;;;0.30;0.30;;;1.80;99.90;;;;;;5113787;28;20442;-85
2021/12/07 04:39:16;;;;;;;0.30;0.30;;;1.80;99.90;;;;;;5114184;28;20453;-89
2021/12/07 04:41:45;;;;;;;0.30;0.30;;;1.70;99.90;;;;;;5114330;28;20470;-89
2021/12/07 04:44:12;;;;;;;0.30;0.30;;;1.70;99.90;;;;;;5113983;28;20474;-89
2021/12/07 04:46:45;;;;;;;0.30;0.30;;;1.60;99.90;;;;;;5114328;28;20462;-89
2021/12/07 04:49:44;;;;;;;0.30;0.30;;;1.60;99.90;;;;;;5114319;28;20534;-89
2021/12/07 04:57:44;;;;;;;0.30;0.30;;;1.60;99.90;;;;;;5117265;28;20419;-83
2021/12/07 05:00:16;;;;;;;0.30;0.30;;;1.50;99.90;;;;;;5117368;28;20468;-83
2021/12/07 05:02:46;;;;;;;0.30;0.30;;;1.50;99.90;;;;;;5117465;28;20430;-85
2021/12/07 05:05:16;;;;;;;0.30;0.30;;;1.50;99.90;;;;;;5116890;28;20964;-85
2021/12/07 05:07:49;;;;;;;0.30;0.30;;;1.50;99.90;;;;;;5117598;28;20534;-85
2021/12/07 05:13:24;;;;;;;0.30;0.30;;;1.50;99.90;;;;;;5116859;28;20446;-83
2021/12/07 05:16:07;;;;;;;0.40;0.30;;;1.40;99.90;;;;;;5119051;28;20519;-83
2021/12/07 05:24:04;;;;;;;0.30;0.30;;;1.40;99.90;;;;;;5116955;28;20458;-83
2021/12/07 05:37:43;;;;;;;0.30;0.30;;;1.40;99.90;;;;;;5117682;28;20403;-89
2021/12/07 05:37:54;;;;;;;0.30;0.30;;;1.40;99.90;;;;;;5117305;28;20447;-89
2021/12/07 05:40:25;;;;;;;0.30;0.30;;;1.40;99.90;;;;;;5117413;28;20425;-89
2021/12/07 05:42:53;;;;;;;0.30;0.20;;;1.30;99.90;;;;;;5117235;28;20420;-89
2021/12/07 05:45:22;;;;;;;0.30;0.30;;;1.30;99.90;;;;;;5116856;28;20486;-88
2021/12/07 05:47:50;;;;;;;0.30;0.30;;;1.30;99.90;;;;;;5117633;27;20425;-89
2021/12/07 05:50:21;;;;;;;0.30;0.30;;;1.30;99.90;;;;;;5117080;28;20463;-89
2021/12/07 05:52:48;;;;;;;0.30;0.30;;;1.40;99.90;;;;;;5117073;28;20434;-89
2021/12/07 05:55:15;;;;;;;0.30;0.30;;;1.40;99.90;;;;;;5117254;28;20443;-88
2021/12/07 05:57:43;;;;;;;0.30;0.30;;;1.50;99.90;;;;;;5116926;28;20451;-88
2021/12/07 06:00:17;;;;;;;0.30;0.30;;;1.60;99.90;;;;;;5116380;28;20986;-88
2021/12/07 06:02:44;;;;;;;0.30;0.30;;;1.60;99.90;;;;;;5117064;28;20440;-89
2021/12/07 06:05:10;;;;;;;0.30;0.30;;;1.70;99.90;;;;;;5116046;28;20478;-83
2021/12/07 06:07:37;;;;;;;0.30;0.30;;;1.80;99.90;;;;;;5116124;28;20517;-83
2021/12/07 06:10:05;;;;;;;0.30;0.30;;;1.80;99.90;;;;;;5115473;28;20483;-83
2021/12/07 06:12:31;;;;;;;0.30;0.30;;;1.70;99.90;;;;;;5115637;28;20451;-89
2021/12/07 06:15:00;;;;;;;0.30;0.20;;;1.60;99.90;;;;;;5117319;28;20418;-89
2021/12/07 06:17:26;;;;;;;0.30;0.30;;;1.60;99.90;;;;;;5117046;28;20446;-89
2021/12/07 06:19:53;;;;;;;0.30;0.30;;;1.50;99.90;;;;;;5116589;28;20561;-85
2021/12/07 06:22:20;;;;;;;0.30;0.30;;;1.50;99.90;;;;;;5115840;28;20443;-85
2021/12/07 06:24:47;;;;;;;0.30;0.30;;;1.50;99.90;;;;;;5115435;28;20470;-85
2021/12/07 06:27:14;;;;;;;0.30;0.30;;;1.50;99.90;;;;;;5115440;28;20431;-84
2021/12/07 06:29:40;;;;;;;0.30;0.30;;;1.50;99.90;;;;;;5115654;28;20450;-85
2021/12/07 06:32:09;;;;;;;0.30;0.30;;;1.50;99.90;;;;;;5115651;28;20450;-85
2021/12/07 06:34:36;;;;;;;0.30;0.30;;;1.50;99.90;;;;;;5115799;28;20462;-88
2021/12/07 06:37:04;;;;;;;0.30;0.20;;;1.50;99.90;;;;;;5116095;28;20443;-89
2021/12/07 06:39:32;;;;;;;0.30;0.30;;;1.50;99.90;;;;;;5116421;27;20450;-89
2021/12/07 06:41:58;;;;;;;0.30;0.30;;;1.50;99.90;;;;;;5116304;28;20816;-86
2021/12/07 06:44:25;;;;;;;0.30;0.30;;;1.50;99.90;;;;;;5115711;28;20475;-82
2021/12/07 06:46:52;;;;;;;0.30;0.30;;;1.50;99.90;;;;;;5115036;27;20969;-82
2021/12/07 06:49:21;;;;;;;0.30;0.30;;;1.60;99.90;;;;;;5115366;28;20454;-82
2021/12/07 06:51:49;;;;;;;0.30;0.30;;;1.60;99.90;;;;;;5115003;28;20474;-83
2021/12/07 06:54:16;;;;;;;0.30;0.20;;;1.60;99.90;;;;;;5114876;28;20926;-82
2021/12/07 06:56:43;;;;;;;0.30;0.30;;;1.70;99.90;;;;;;5115164;28;20443;-82
2021/12/07 06:59:10;;;;;;;0.30;0.20;;;1.70;99.90;;;;;;5115109;28;20425;-83
2021/12/07 07:01:36;;;;;;;0.30;0.30;;;1.80;99.90;;;;;;5114952;27;20474;-82
2021/12/07 07:04:04;;;;;;;0.30;0.20;;;1.90;99.90;;;;;;5114921;28;20483;-83
2021/12/07 07:06:32;;;;;;;0.30;0.30;;;1.90;99.90;;;;;;5114949;28;20458;-82
2021/12/07 07:08:58;;;;;;;0.30;0.30;;;2.00;99.90;;;;;;5114628;28;20478;-85
2021/12/07 07:11:25;;;;;;;0.30;0.30;;;2.00;99.90;;;;;;5114766;28;20474;-85
2021/12/07 07:13:52;;;;;;;0.30;0.30;;;2.10;99.90;;;;;;5114213;28;20474;-82
2021/12/07 07:16:19;;;;;;;0.30;0.30;;;2.10;99.90;;;;;;5114706;28;20455;-82
2021/12/07 07:18:46;;;;;;;0.40;0.40;;;2.10;99.90;;;;;;5114405;27;20957;-83
2021/12/07 07:21:13;;;;;;;0.30;0.30;;;2.10;99.90;;;;;;5114609;28;20459;-83
2021/12/07 07:23:41;;;;;;;0.30;0.30;;;2.10;99.90;;;;;;5114684;28;20430;-82
2021/12/07 07:26:08;;;;;;;0.30;0.23;;;2.10;99.90;;;;;;5114499;28;20487;-82
2021/12/07 07:28:35;;;;;;;0.40;0.40;;;2.10;99.90;;;;;;5114521;28;20454;-82
2021/12/07 07:31:05;;;;;;;0.30;0.30;;;2.10;99.90;;;;;;5114431;28;20467;-82
2021/12/07 07:33:33;;;;;;;0.53;0.53;;;2.10;99.90;;;;;;5114707;28;20443;-81
2021/12/07 07:35:59;;;;;;;0.30;0.30;;;2.10;99.90;;;;;;5114413;28;20443;-81
2021/12/07 07:38:26;;;;;;;0.30;0.30;;;2.20;99.90;;;;;;5114115;28;20521;-82
2021/12/07 07:40:54;;;;;;;0.73;0.73;;;2.30;99.90;;;;;;5114122;28;20451;-81
2021/12/07 07:43:21;;;;;;;0.30;0.30;;;2.30;99.90;;;;;;5114342;28;20454;-81
2021/12/07 07:45:50;;;;;;;0.30;0.30;;;2.30;99.90;;;;;;5114276;28;21008;-81
2021/12/07 07:48:18;;;;;;;0.30;0.30;;;2.40;99.90;;;;;;5114832;28;20778;-82
2021/12/07 07:50:46;;;;;;;0.30;0.20;;;2.40;99.90;;;;;;5114478;28;20467;-89
2021/12/07 07:53:13;;;;;;;0.30;0.30;;;2.40;99.90;;;;;;5130768;28;20435;-88
2021/12/07 07:55:42;;;;;;;0.30;0.30;;;2.50;99.90;;;;;;5115545;28;20439;-81
2021/12/07 07:58:12;;;;;;;0.30;0.20;;;2.50;99.90;;;;;;5114045;28;20500;-81
2021/12/07 08:00:39;;;;;;;0.30;0.30;;;2.50;99.90;;;;;;5114315;28;20463;-82
2021/12/07 08:03:06;;;;;;;0.30;0.20;;;2.60;99.90;;;;;;5114004;28;20462;-82
2021/12/07 08:05:33;;;;;;;0.30;0.20;;;2.60;99.90;;;;;;5113871;28;20478;-82
2021/12/07 08:08:01;;;;;;;0.30;0.30;;;2.60;99.90;;;;;;5114530;28;20450;-89
2021/12/07 08:10:29;;;;;;;0.40;0.40;;;2.60;99.90;;;;;;5114231;28;20482;-90
2021/12/07 08:12:56;;;;;;;0.37;0.37;;;2.60;99.90;;;;;;5114723;28;20447;-89
2021/12/07 08:15:25;;;;;;;0.30;0.27;;;2.60;99.90;;;;;;5114961;28;20450;-89
2021/12/07 08:17:52;;;;;;;0.30;0.20;;;2.50;99.90;;;;;;5114573;28;20442;-89
2021/12/07 08:20:20;;;;;;;0.30;0.20;;;2.50;99.90;;;;;;5114446;28;20438;-89
2021/12/07 08:22:47;;;;;;;0.30;0.30;;;2.50;99.90;;;;;;5113703;28;20451;-82
2021/12/07 08:25:14;;;;;;;0.30;0.30;;;2.50;99.90;;;;;;5114405;28;20479;-85
2021/12/07 08:27:41;;;;;;;0.30;0.30;;;2.50;99.90;;;;;;5118292;28;20447;-85
2021/12/07 08:30:10;;;;;;;0.30;0.30;;;2.50;99.90;;;;;;5118198;28;20474;-85
2021/12/07 08:32:44;;;;;;;0.30;0.20;;;2.50;99.90;;;;;;5117660;28;20456;-85
2021/12/07 08:35:11;;;;;;;0.30;0.30;;;2.50;99.90;;;;;;5117981;28;20427;-85
2021/12/07 08:37:38;;;;;;;0.30;0.30;;;2.50;99.90;;;;;;5117939;28;20427;-85
2021/12/07 08:40:06;;;;;;;0.30;0.30;;;2.60;99.90;;;;;;5118032;28;20989;-90
2021/12/07 08:42:33;;;;;;;0.30;0.30;;;2.70;99.90;;;;;;5118348;28;20446;-82
2021/12/07 08:45:00;;;;;;;0.30;0.20;;;2.70;99.90;;;;;;5117411;28;20481;-81
2021/12/07 08:47:26;;;;;;;0.30;0.20;;;2.80;99.90;;;;;;5117675;28;20451;-82
2021/12/07 08:49:54;;;;;;;0.30;0.30;;;2.90;99.90;;;;;;5117738;27;20606;-81
2021/12/07 08:52:21;;;;;;;0.30;0.20;;;2.80;99.90;;;;;;5117583;28;20447;-82
2021/12/07 09:00:16;;;;;;;0.30;0.30;;;3.00;99.90;;;;;;5117873;28;20438;-88
2021/12/07 09:02:43;;;;;;;0.30;0.20;;;3.00;99.90;;;;;;5118064;28;20570;-89
2021/12/07 09:05:12;;;;;;;0.30;0.30;;;3.10;99.90;;;;;;5117986;28;20486;-88
2021/12/07 09:07:38;;;;;;;0.30;0.30;;;3.10;99.90;;;;;;5117703;28;20466;-89
2021/12/07 09:10:06;;;;;;;0.30;0.30;;;3.20;99.90;;;;;;5117249;28;20489;-88
2021/12/07 09:12:39;;;;;;;0.30;0.20;;;3.20;99.90;;;;;;5117631;28;20431;-88
2021/12/07 09:15:07;;;;;;;0.30;0.30;;;3.30;99.90;;;;;;5117126;28;20447;-88
2021/12/07 09:17:35;;;;;;;0.30;0.30;;;3.40;99.90;;;;;;5117780;28;20443;-88
2021/12/07 09:20:03;;;;;;;0.30;0.30;;;3.50;99.90;;;;;;5117299;28;20470;-88
2021/12/07 09:22:32;;;;;;;0.30;0.30;;;3.70;99.90;;;;;;5117627;28;20443;-88
2021/12/07 09:24:59;;;;;;;0.30;0.30;;;3.70;99.90;;;;;;5117565;28;20513;-88
2021/12/07 09:27:26;;;;;;;0.30;0.20;;;3.80;99.90;;;;;;5117679;28;20450;-88
2021/12/07 09:29:53;;;;;;;0.30;0.30;;;3.90;99.90;;;;;;5116899;28;21168;-88
2021/12/07 09:32:20;;;;;;;0.30;0.30;;;4.10;99.90;;;;;;5117523;28;20442;-88
2021/12/07 09:34:47;;;;;;;0.30;0.20;;;4.40;99.90;;;;;;5117265;28;20811;-88
2021/12/07 09:37:14;;;;;;;0.30;0.30;;;4.60;99.90;;;;;;5116519;28;20969;-88
2021/12/07 09:39:42;;;;;;;0.30;0.27;;;4.70;99.90;;;;;;5116867;28;20443;-88
2021/12/07 09:42:09;;;;;;;0.30;0.20;;;5.00;99.90;;;;;;5117399;28;20448;-88
2021/12/07 09:44:36;;;;;;;0.30;0.30;;;5.90;99.90;;;;;;5117019;28;20457;-88
2021/12/07 09:47:03;;;;;;;0.30;0.30;;;7.20;99.90;;;;;;5117016;28;20796;-88
2021/12/07 09:49:30;;;;;;;0.30;0.27;;;8.70;99.90;;;;;;5116796;28;20447;-88
2021/12/07 09:51:57;;;;;;;0.30;0.30;;;9.90;99.90;;;;;;5116570;28;20467;-85
2021/12/07 09:54:24;;;;;;;0.30;0.20;;;10.90;99.90;;;;;;5116310;28;20430;-85
2021/12/07 09:56:52;;;;;;;0.30;0.30;;;11.40;99.90;;;;;;5116452;28;20423;-85
2021/12/07 09:59:19;;;;;;;0.30;0.20;;;11.10;99.90;;;;;;5116365;28;20446;-85
2021/12/07 10:01:46;;;;;;;0.30;0.30;;;10.70;99.90;;;;;;5116269;28;20467;-85
2021/12/07 10:04:13;;;;;;;0.40;0.40;;;10.30;99.90;;;;;;5115977;28;20412;-85
2021/12/07 10:06:40;;;;;;;0.30;0.30;;;9.90;99.90;;;;;;5115917;28;20525;-85
2021/12/07 10:09:08;;;;;;;0.40;0.30;;;9.20;99.90;;;;;;5116838;28;20481;-85
2021/12/07 10:11:35;;;;;;;0.30;0.30;;;8.60;99.90;;;;;;5116982;28;20463;-87
2021/12/07 10:14:04;;;;;;;0.40;0.40;;;8.00;99.90;;;;;;5116424;28;20794;-87
2021/12/07 10:16:31;;;;;;;0.30;0.20;;;7.60;99.90;;;;;;5116599;28;20423;-87
2021/12/07 10:18:59;;;;;;;0.30;0.20;;;7.30;99.90;;;;;;5116277;28;20443;-87
2021/12/07 10:21:30;;;;;;;0.30;0.20;;;7.00;99.90;;;;;;5115902;28;20985;-87
2021/12/07 10:24:01;;;;;;;0.30;0.20;;;6.70;99.90;;;;;;5116185;28;20492;-87
2021/12/07 10:26:31;;;;;;;0.30;0.20;;;6.60;99.90;;;;;;5116107;28;20470;-87
2021/12/07 10:29:00;;;;;;;0.30;0.30;;;6.60;99.90;;;;;;5115820;28;20411;-87
2021/12/07 10:31:32;;;;;;;0.30;0.20;;;6.70;99.90;;;;;;5116139;27;20471;-87
2021/12/07 10:34:02;;;;;;;0.30;0.27;;;7.00;99.90;;;;;;5115831;28;20802;-81
2021/12/07 10:36:32;;;;;;;0.30;0.20;;;7.10;99.90;;;;;;5115292;28;20530;-81
2021/12/07 10:39:06;;;;;;;0.40;0.30;;;7.20;99.90;;;;;;5115632;28;20423;-81
2021/12/07 10:41:35;;;;;;;0.30;0.30;;;7.10;99.90;;;;;;5115504;28;20451;-81
2021/12/07 10:44:07;;;;;;;0.40;0.40;;;7.00;99.90;;;;;;5115489;27;20438;-81
2021/12/07 10:46:48;;;;;;;0.37;0.30;;;6.90;99.90;;;;;;5115512;28;20467;-82
2021/12/07 10:49:32;;;;;;;0.37;0.27;;;6.90;99.90;;;;;;5113930;28;20431;-81
2021/12/07 10:52:26;;;;;;;0.30;0.20;;;6.80;99.90;;;;;;5115304;28;20432;-81
2021/12/07 10:55:10;;;;;;;0.87;0.60;;;6.60;99.90;;;;;;5115282;28;20427;-81
2021/12/07 10:57:39;;;;;;;0.30;0.27;;;6.50;99.90;;;;;;5113535;28;20463;-81
2021/12/07 11:00:21;;;;;;;0.30;0.20;;;6.60;99.90;;;;;;5115077;28;20638;-81
2021/12/07 11:02:53;;;;;;;0.30;0.20;;;6.60;99.90;;;;;;5115072;28;20431;-81
2021/12/07 11:05:22;;;;;;;0.30;0.27;;;6.70;99.90;;;;;;5115435;28;20467;-81
2021/12/07 11:07:50;;;;;;;0.30;0.30;;;6.80;99.90;;;;;;5115001;28;20428;-81
2021/12/07 11:10:22;;;;;;;0.30;0.20;;;6.60;99.90;;;;;;5114462;28;20493;-81
2021/12/07 11:12:59;;;;;;;0.30;0.30;;;6.60;99.90;;;;;;5114583;28;20784;-81
2021/12/07 11:15:28;;;;;;;0.30;0.30;;;6.60;99.90;;;;;;5114845;27;20431;-81
2021/12/07 11:17:59;;;;;;;0.30;0.30;;;6.70;99.90;;;;;;5114924;28;20530;-87
2021/12/07 11:20:27;;;;;;;0.30;0.30;;;6.70;99.90;;;;;;5116779;28;20459;-88
2021/12/07 11:22:57;;;;;;;0.30;0.20;;;6.50;99.90;;;;;;5114708;28;20910;-87
2021/12/07 11:25:54;;;;;;;0.30;0.30;;;6.40;99.90;;;;;;5114922;28;20463;-87
2021/12/07 11:31:17;;;;;;;0.30;0.20;;;6.10;99.90;;;;;;5114624;28;20815;-87
2021/12/07 11:33:46;;;;;;;0.30;0.30;;;5.90;99.90;;;;;;5114390;28;20917;-86
2021/12/07 11:36:23;;;;;;;0.30;0.20;;;5.80;99.90;;;;;;5114624;28;20423;-86
2021/12/07 11:38:50;;;;;;;0.30;0.30;;;5.70;99.90;;;;;;5114666;28;20434;-86
2021/12/07 11:41:20;;;;;;;0.30;0.30;;;5.70;99.90;;;;;;5114510;28;20455;-86
2021/12/07 11:43:51;;;;;;;0.30;0.20;;;5.70;99.90;;;;;;5114524;28;20535;-86
2021/12/07 11:46:19;;;;;;;0.30;0.20;;;5.70;99.90;;;;;;5114558;28;20471;-86
2021/12/07 11:48:47;;;;;;;0.30;0.20;;;5.80;99.90;;;;;;5114388;28;20435;-86
2021/12/07 11:51:14;;;;;;;0.30;0.20;;;5.80;99.90;;;;;;5114316;28;20463;-87
2021/12/07 11:53:43;;;;;;;0.30;0.20;;;5.90;99.90;;;;;;5114037;28;20906;-86
2021/12/07 11:56:10;;;;;;;0.30;0.20;;;5.90;99.90;;;;;;5114417;28;20423;-86
2021/12/07 11:58:37;;;;;;;0.30;0.20;;;5.80;99.90;;;;;;5114270;28;20432;-86
2021/12/07 12:01:06;;;;;;;0.30;0.20;;;5.70;99.90;;;;;;5114062;28;20463;-86
2021/12/07 12:03:33;;;;;;;0.30;0.30;;;5.60;99.90;;;;;;5114320;28;20423;-86
2021/12/07 12:06:01;;;;;;;0.30;0.20;;;5.70;99.90;;;;;;5113765;28;20969;-86
2021/12/07 12:08:28;;;;;;;0.30;0.30;;;5.70;99.90;;;;;;5114039;28;20447;-87
2021/12/07 12:11:03;;;;;;;0.30;0.20;;;5.80;99.90;;;;;;5114238;28;20554;-87
2021/12/07 12:13:42;;;;;;;0.30;0.30;;;5.70;99.90;;;;;;5114291;28;20431;-87
2021/12/07 12:16:17;;;;;;;0.30;0.30;;;5.60;99.90;;;;;;5114059;28;20522;-87
2021/12/07 12:18:57;;;;;;;0.30;0.20;;;5.60;99.90;;;;;;5113250;28;20427;-87
2021/12/07 12:21:34;;;;;;;0.60;0.60;;;5.60;99.90;;;;;;5114011;28;20459;-87
2021/12/07 12:24:08;;;;;;;0.30;0.20;;;5.60;99.90;;;;;;5114089;28;20423;-86
2021/12/07 12:26:38;;;;;;;0.30;0.20;;;5.50;99.90;;;;;;5113748;28;20474;-87
2021/12/07 12:29:18;;;;;;;0.30;0.30;;;5.40;99.90;;;;;;5116771;28;20435;-86
2021/12/07 12:31:49;;;;;;;0.30;0.20;;;5.20;99.90;;;;;;5114685;28;20474;-87
2021/12/07 12:34:19;;;;;;;0.30;0.20;;;5.20;99.90;;;;;;5113969;28;20910;-86
2021/12/07 12:37:08;;;;;;;0.30;0.30;;;5.10;99.90;;;;;;5113914;28;20430;-86
2021/12/07 12:39:50;;;;;;;0.30;0.20;;;5.20;99.90;;;;;;5113638;28;20431;-87
2021/12/07 12:42:26;;;;;;;0.30;0.27;;;5.30;99.90;;;;;;5117674;28;20430;-86
2021/12/07 12:45:03;;;;;;;0.30;0.30;;;5.40;99.90;;;;;;5122717;28;20423;-86
2021/12/07 12:47:32;;;;;;;0.30;0.20;;;5.40;99.90;;;;;;5116023;28;20467;-86
2021/12/07 12:50:13;;;;;;;0.30;0.30;;;5.40;99.90;;;;;;5114218;28;20459;-86
2021/12/07 12:52:44;;;;;;;0.30;0.30;;;5.40;99.90;;;;;;5113820;28;20873;-87
2021/12/07 12:55:33;;;;;;;0.30;0.23;;;5.40;99.90;;;;;;5113512;28;20910;-87
2021/12/07 12:58:01;;;;;;;0.30;0.20;;;5.50;99.90;;;;;;5113828;28;20434;-87
2021/12/07 13:01:04;;;;;;;0.30;0.20;;;5.40;99.90;;;;;;5113625;28;20458;-86
2021/12/07 13:04:04;;;;;;;0.30;0.20;;;5.50;99.90;;;;;;5113953;28;20433;-87
2021/12/07 13:06:50;;;;;;;0.30;0.20;;;5.50;99.90;;;;;;5079846;28;20479;-86
2021/12/07 13:09:31;;;;;;;0.50;0.50;;;5.50;99.90;;;;;;5113252;28;20482;-81
2021/12/07 13:12:00;;;;;;;0.30;0.30;;;5.60;99.90;;;;;;5113163;28;20463;-87
2021/12/07 13:14:32;;;;;;;0.30;0.30;;;5.50;99.90;;;;;;5117363;28;20579;-87
2021/12/07 13:17:03;;;;;;;0.30;0.20;;;5.50;99.90;;;;;;5117159;28;20435;-87
2021/12/07 13:19:31;;;;;;;0.30;0.30;;;5.40;99.90;;;;;;5117290;28;20431;-86
2021/12/07 13:22:04;;;;;;;0.30;0.20;;;5.40;99.90;;;;;;5117279;27;20827;-86
2021/12/07 13:24:35;;;;;;;0.30;0.30;;;5.40;99.90;;;;;;5117403;28;20423;-87
2021/12/07 13:27:10;;;;;;;0.30;0.20;;;5.50;99.90;;;;;;5117046;28;20467;-87
2021/12/07 13:29:38;;;;;;;0.30;0.30;;;5.50;99.90;;;;;;5116792;28;20443;-87
2021/12/07 13:32:06;;;;;;;0.30;0.30;;;5.50;99.90;;;;;;5117255;28;20419;-87
2021/12/07 13:34:35;;;;;;;0.40;0.30;;;5.50;99.90;;;;;;5117066;28;20434;-87
2021/12/07 13:37:04;;;;;;;0.30;0.20;;;5.50;99.90;;;;;;5117173;28;20434;-87
2021/12/07 13:39:51;;;;;;;0.30;0.30;;;5.60;99.90;;;;;;5117007;28;20435;-87
2021/12/07 13:42:29;;;;;;;0.30;0.20;;;5.50;99.90;;;;;;5116622;28;20929;-87
2021/12/07 13:44:59;;;;;;;0.30;0.20;;;5.60;99.90;;;;;;5116831;28;20484;-86
2021/12/07 13:47:29;;;;;;;0.30;0.30;;;5.50;99.90;;;;;;5116441;28;20467;-87
2021/12/07 13:49:59;;;;;;;0.30;0.20;;;5.40;99.90;;;;;;5116746;28;20833;-87
2021/12/07 13:52:29;;;;;;;0.30;0.30;;;5.20;99.90;;;;;;5116663;28;20494;-87
2021/12/07 13:54:59;;;;;;;0.33;0.30;;;5.00;99.90;;;;;;5116644;27;20439;-87
2021/12/07 13:57:28;;;;;;;0.30;0.20;;;4.90;99.90;;;;;;5116789;28;20814;-86
2021/12/07 14:00:04;;;;;;;0.30;0.20;;;4.80;99.90;;;;;;5116515;28;20478;-87
2021/12/07 14:02:32;;;;;;;0.30;0.30;;;4.60;99.90;;;;;;5116374;28;20897;-87
2021/12/07 14:05:08;;;;;;;0.30;0.30;;;4.60;99.90;;;;;;5116607;28;20782;-87
2021/12/07 14:07:36;;;;;;;0.30;0.30;;;4.50;99.90;;;;;;5116398;28;20475;-87
2021/12/07 14:10:11;;;;;;;0.30;0.20;;;4.40;99.90;;;;;;5115972;28;20489;-87
2021/12/07 14:12:38;;;;;;;0.30;0.20;;;4.40;99.90;;;;;;5116067;27;20412;-87
2021/12/07 14:15:12;;;;;;;0.30;0.20;;;4.30;99.90;;;;;;5115935;28;20902;-87
2021/12/07 14:17:41;;;;;;;0.30;0.20;;;4.30;99.90;;;;;;5116245;28;20906;-86
2021/12/07 14:20:09;;;;;;;0.30;0.30;;;4.20;99.90;;;;;;5116127;28;20457;-87
2021/12/07 14:22:36;;;;;;;0.30;0.30;;;4.10;99.90;;;;;;5116642;28;20461;-87
2021/12/07 14:25:04;;;;;;;0.50;0.30;;;4.10;99.90;;;;;;5116367;28;20781;-87
2021/12/07 14:27:34;;;;;;;0.30;0.20;;;4.00;99.90;;;;;;5115664;28;20467;-87
2021/12/07 14:30:02;;;;;;;0.30;0.20;;;4.00;99.90;;;;;;5116229;28;20455;-87
2021/12/07 14:32:29;;;;;;;0.30;0.27;;;4.00;99.90;;;;;;5115764;28;20412;-87
2021/12/07 14:35:00;;;;;;;0.30;0.30;;;3.90;99.90;;;;;;5115837;28;20756;-87